createdAt,value
2022-08-01T00:00:26.360Z,100383.97
2022-08-01T00:03:27.973Z,100385.69
2022-08-01T00:06:30.149Z,100384.66
2022-08-01T00:09:32.001Z,100386.69
2022-08-01T00:12:33.789Z,100382.97
2022-08-01T00:15:35.564Z,100380.94
2022-08-01T00:18:37.189Z,100380.06
2022-08-01T00:21:40.107Z,100380.41
2022-08-01T00:24:53.819Z,100380.41
2022-08-01T00:27:55.501Z,100381.25
2022-08-01T00:30:57.175Z,100388.56
2022-08-01T00:33:58.859Z,100385.84
2022-08-01T00:37:00.647Z,100381.25
2022-08-01T00:40:02.430Z,100383.81
2022-08-01T00:43:04.672Z,100385.50
2022-08-01T00:46:06.469Z,100382.63
2022-08-01T00:49:10.556Z,100389.94
2022-08-01T00:52:13.138Z,100383.66
2022-08-01T00:55:15.302Z,100394.00
2022-08-01T00:58:17.845Z,100389.41
2022-08-01T01:01:21.668Z,100383.31
2022-08-01T01:04:23.560Z,100375.47
2022-08-01T01:07:50.277Z,100380.06
2022-08-01T01:11:05.484Z,100376.50
2022-08-01T01:14:14.577Z,100377.69
2022-08-01T01:17:31.273Z,100381.44
2022-08-01T01:20:45.639Z,100375.47
2022-08-01T01:24:04.819Z,100382.44
2022-08-01T01:27:19.510Z,100389.75
2022-08-01T01:30:26.710Z,100383.63
2022-08-01T01:33:32.211Z,100387.88
2022-08-01T01:36:34.893Z,100389.91
2022-08-01T01:39:39.502Z,100383.97
2022-08-01T01:42:47.877Z,100389.06
2022-08-01T01:45:52.909Z,100391.09
2022-08-01T01:48:57.898Z,100397.22
2022-08-01T01:52:02.532Z,100389.56
2022-08-01T01:55:08.005Z,100391.44
2022-08-01T01:58:14.288Z,100392.50
2022-08-01T02:01:17.005Z,100391.78
2022-08-01T02:04:43.768Z,100385.88
2022-08-01T02:07:46.191Z,100385.00
2022-08-01T02:11:12.805Z,100394.16
2022-08-01T02:14:16.545Z,100386.72
2022-08-01T02:17:21.066Z,100382.28
2022-08-01T02:20:23.156Z,100392.50
2022-08-01T02:23:28.179Z,100381.78
2022-08-01T02:26:31.831Z,100391.59
2022-08-01T02:29:58.499Z,100399.94
2022-08-01T02:33:05.973Z,100397.22
2022-08-01T02:36:31.691Z,100403.66
2022-08-01T02:39:32.900Z,100399.75
2022-08-01T02:42:38.871Z,100399.41
2022-08-01T02:45:44.715Z,100401.28
2022-08-01T02:48:48.928Z,100400.59
2022-08-01T02:51:53.966Z,100404.84
2022-08-01T02:54:57.360Z,100404.19
2022-08-01T02:58:00.835Z,100406.91
2022-08-01T03:01:03.880Z,100416.75
2022-08-01T03:04:08.017Z,100412.34
2022-08-01T03:07:11.679Z,100415.22
2022-08-01T03:10:17.102Z,100419.81
2022-08-01T03:13:19.974Z,100419.28
2022-08-01T03:16:25.173Z,100427.28
2022-08-01T03:19:29.347Z,100419.97
2022-08-01T03:22:34.688Z,100418.44
2022-08-01T03:25:40.842Z,100420.31
2022-08-01T03:28:45.111Z,100430.34
2022-08-01T03:31:48.990Z,100437.78
2022-08-01T03:34:50.929Z,100436.38
2022-08-01T03:38:15.326Z,100435.88
2022-08-01T03:41:22.122Z,100439.78
2022-08-01T03:44:25.661Z,100443.50
2022-08-01T03:47:32.355Z,100443.66
2022-08-01T03:50:35.826Z,100438.09
2022-08-01T03:53:42.277Z,100444.16
2022-08-01T03:56:47.100Z,100447.56
2022-08-01T03:59:50.111Z,100443.16
2022-08-01T04:02:52.492Z,100445.88
2022-08-01T04:05:54.415Z,100455.34
2022-08-01T04:08:58.851Z,100454.31
2022-08-01T04:12:01.142Z,100456.19
2022-08-01T04:15:11.715Z,100466.22
2022-08-01T04:18:13.318Z,100463.66
2022-08-01T04:21:18.645Z,100464.53
2022-08-01T04:24:23.242Z,100465.19
2022-08-01T04:27:48.500Z,100470.97
2022-08-01T04:31:01.820Z,100475.22
2022-08-01T04:34:06.720Z,100480.50
2022-08-01T04:37:13.255Z,100478.63
2022-08-01T04:40:16.223Z,100493.88
2022-08-01T04:43:20.911Z,100491.19
2022-08-01T04:46:23.569Z,100492.19
2022-08-01T04:49:25.464Z,100487.47
2022-08-01T04:52:37.414Z,100500.88
2022-08-01T04:55:39.024Z,100500.03
2022-08-01T04:58:42.116Z,100506.16
2022-08-01T05:01:43.725Z,100507.84
2022-08-01T05:04:46.751Z,100509.22
2022-08-01T05:07:48.334Z,100510.41
2022-08-01T05:10:50.004Z,100515.97
2022-08-01T05:13:52.462Z,100512.28
2022-08-01T05:16:54.340Z,100511.09
2022-08-01T05:19:56.129Z,100518.56
2022-08-01T05:22:58.201Z,100522.44
2022-08-01T05:25:59.862Z,100529.09
2022-08-01T05:29:01.642Z,100524.69
2022-08-01T05:32:04.238Z,100522.13
2022-08-01T05:35:06.721Z,100529.09
2022-08-01T05:38:08.326Z,100523.66
2022-08-01T05:41:15.825Z,100518.06
2022-08-01T05:44:17.431Z,100532.03
2022-08-01T05:47:19.244Z,100527.13
2022-08-01T05:50:20.916Z,100531.38
2022-08-01T05:53:22.587Z,100535.81
2022-08-01T05:56:24.457Z,100534.78
2022-08-01T05:59:26.653Z,100534.09
2022-08-01T06:02:28.904Z,100536.31
2022-08-01T06:05:30.719Z,100530.72
2022-08-01T06:08:32.815Z,100543.66
2022-08-01T06:11:34.471Z,100546.22
2022-08-01T06:14:36.105Z,100546.72
2022-08-01T06:17:37.842Z,100559.81
2022-08-01T06:20:39.439Z,100556.25
2022-08-01T06:23:42.534Z,100564.22
2022-08-01T06:26:44.163Z,100562.91
2022-08-01T06:29:53.497Z,100575.66
2022-08-01T06:33:00.848Z,100570.22
2022-08-01T06:36:02.474Z,100573.78
2022-08-01T06:39:04.383Z,100579.72
2022-08-01T06:42:06.252Z,100581.44
2022-08-01T06:45:12.937Z,100575.47
2022-08-01T06:48:14.469Z,100580.06
2022-08-01T06:51:19.011Z,100581.94
2022-08-01T06:54:20.625Z,100589.91
2022-08-01T06:57:22.248Z,100596.69
2022-08-01T07:00:25.524Z,100595.13
2022-08-01T07:03:54.062Z,100592.88
2022-08-01T07:06:49.774Z,100597.59
2022-08-01T07:09:51.381Z,100602.06
2022-08-01T07:12:54.913Z,100602.06
2022-08-01T07:15:56.588Z,100603.59
2022-08-01T07:18:58.329Z,100608.34
2022-08-01T07:22:00.012Z,100598.19
2022-08-01T07:25:01.750Z,100600.06
2022-08-01T07:28:03.625Z,100598.88
2022-08-01T07:31:05.319Z,100603.84
2022-08-01T07:34:08.066Z,100611.53
2022-08-01T07:37:09.787Z,100613.38
2022-08-01T07:40:12.003Z,100614.63
2022-08-01T07:43:14.170Z,100608.66
2022-08-01T07:46:16.502Z,100615.97
2022-08-01T07:49:18.246Z,100611.75
2022-08-01T07:52:20.791Z,100612.28
2022-08-01T07:55:22.610Z,100616.38
2022-08-01T07:58:24.276Z,100618.44
2022-08-01T08:01:25.970Z,100625.06
2022-08-01T08:04:28.808Z,100631.00
2022-08-01T08:07:30.604Z,100636.78
2022-08-01T08:10:32.446Z,100636.78
2022-08-01T08:13:34.052Z,100641.53
2022-08-01T08:16:35.708Z,100638.81
2022-08-01T08:19:39.698Z,100646.97
2022-08-01T08:22:41.670Z,100642.22
2022-08-01T08:25:43.362Z,100645.44
2022-08-01T08:28:45.037Z,100639.19
2022-08-01T08:31:52.234Z,100643.31
2022-08-01T08:34:54.427Z,100654.38
2022-08-01T08:37:56.169Z,100648.25
2022-08-01T08:41:00.850Z,100656.78
2022-08-01T08:44:09.988Z,100651.34
2022-08-01T08:47:19.082Z,100654.59
2022-08-01T08:50:22.012Z,100656.13
2022-08-01T08:53:24.761Z,100666.00
2022-08-01T08:56:38.539Z,100673.31
2022-08-01T08:59:40.633Z,100676.53
2022-08-01T09:02:44.345Z,100673.97
2022-08-01T09:05:46.365Z,100675.69
2022-08-01T09:08:48.671Z,100682.13
2022-08-01T09:11:56.814Z,100682.34
2022-08-01T09:15:00.091Z,100683.19
2022-08-01T09:18:01.717Z,100693.25
2022-08-01T09:21:09.971Z,100693.44
2022-08-01T09:24:16.769Z,100697.50
2022-08-01T09:27:24.997Z,100698.19
2022-08-01T09:30:26.908Z,100702.41
2022-08-01T09:33:51.196Z,100706.63
2022-08-01T09:36:57.454Z,100718.69
2022-08-01T09:39:59.223Z,100723.25
2022-08-01T09:43:14.984Z,100726.13
2022-08-01T09:46:17.358Z,100729.38
2022-08-01T09:49:50.812Z,100732.78
2022-08-01T09:52:57.959Z,100729.06
2022-08-01T09:56:13.340Z,100734.38
2022-08-01T09:59:16.787Z,100729.16
2022-08-01T10:02:40.147Z,100740.94
2022-08-01T10:05:43.936Z,100731.44
2022-08-01T10:08:51.614Z,100731.59
2022-08-01T10:11:53.716Z,100736.19
2022-08-01T10:14:59.350Z,100741.44
2022-08-01T10:18:04.756Z,100741.63
2022-08-01T10:21:57.073Z,100732.53
2022-08-01T10:24:42.394Z,100741.56
2022-08-01T10:27:46.550Z,100740.44
2022-08-01T10:30:49.853Z,100743.03
2022-08-01T10:33:53.379Z,100737.75
2022-08-01T10:36:55.371Z,100745.44
2022-08-01T10:40:27.093Z,100745.09
2022-08-01T10:43:21.542Z,100742.03
2022-08-01T10:46:24.240Z,100748.00
2022-08-01T10:49:31.667Z,100746.75
2022-08-01T10:52:39.169Z,100743.38
2022-08-01T10:56:08.519Z,100742.50
2022-08-01T10:59:11.593Z,100739.13
2022-08-01T11:02:46.404Z,100742.19
2022-08-01T11:05:53.258Z,100746.97
2022-08-01T11:08:55.945Z,100737.31
2022-08-01T11:12:08.925Z,100742.94
2022-08-01T11:15:16.393Z,100740.69
2022-08-01T11:18:32.095Z,100737.19
2022-08-01T11:21:59.347Z,100748.59
2022-08-01T11:25:03.016Z,100756.78
2022-08-01T11:28:28.241Z,100764.81
2022-08-01T11:31:37.604Z,100767.94
2022-08-01T11:34:56.770Z,100774.09
2022-08-01T11:38:25.344Z,100772.22
2022-08-01T11:41:38.697Z,100774.28
2022-08-01T11:44:59.255Z,100772.56
2022-08-01T11:48:01.494Z,100770.34
2022-08-01T11:51:03.710Z,100774.22
2022-08-01T11:54:05.632Z,100765.13
2022-08-01T11:57:10.359Z,100763.28
2022-08-01T12:00:15.346Z,100776.47
2022-08-01T12:03:33.501Z,100776.78
2022-08-01T12:06:35.488Z,100771.38
2022-08-01T12:09:37.115Z,100768.00
2022-08-01T12:12:44.729Z,100772.47
2022-08-01T12:15:47.532Z,100770.91
2022-08-01T12:18:49.848Z,100766.66
2022-08-01T12:22:08.711Z,100776.00
2022-08-01T12:25:11.502Z,100774.06
2022-08-01T12:28:15.914Z,100772.69
2022-08-01T12:31:17.640Z,100769.50
2022-08-01T12:34:26.393Z,100768.38
2022-08-01T12:37:28.429Z,100771.09
2022-08-01T12:40:32.323Z,100780.00
2022-08-01T12:43:35.469Z,100772.38
2022-08-01T12:46:39.509Z,100777.31
2022-08-01T12:49:46.692Z,100779.69
2022-08-01T12:52:49.619Z,100782.56
2022-08-01T12:55:59.134Z,100774.72
2022-08-01T12:59:01.650Z,100771.13
2022-08-01T13:02:09.637Z,100775.53
2022-08-01T13:05:12.423Z,100770.38
2022-08-01T13:08:16.506Z,100782.63
2022-08-01T13:11:19.793Z,100781.06
2022-08-01T13:14:30.381Z,100780.16
2022-08-01T13:17:40.917Z,100779.06
2022-08-01T13:20:42.607Z,100777.44
2022-08-01T13:24:10.539Z,100774.28
2022-08-01T13:27:24.830Z,100780.28
2022-08-01T13:30:26.444Z,100782.72
2022-08-01T13:33:40.718Z,100780.81
2022-08-01T13:36:48.590Z,100784.44
2022-08-01T13:39:51.241Z,100779.19
2022-08-01T13:42:53.222Z,100785.50
2022-08-01T13:45:54.846Z,100781.34
2022-08-01T13:48:56.555Z,100776.72
2022-08-01T13:51:59.010Z,100781.50
2022-08-01T13:55:02.054Z,100775.56
2022-08-01T13:58:03.978Z,100770.81
2022-08-01T14:01:06.144Z,100779.72
2022-08-01T14:04:07.939Z,100781.94
2022-08-01T14:07:14.396Z,100784.66
2022-08-01T14:10:19.324Z,100787.56
2022-08-01T14:13:23.835Z,100782.47
2022-08-01T14:16:25.930Z,100782.47
2022-08-01T14:19:38.777Z,100782.78
2022-08-01T14:22:41.650Z,100784.66
2022-08-01T14:26:01.479Z,100781.41
2022-08-01T14:29:05.036Z,100784.97
2022-08-01T14:32:07.270Z,100783.44
2022-08-01T14:35:09.590Z,100783.63
2022-08-01T14:38:11.216Z,100777.84
2022-08-01T14:41:13.219Z,100780.22
2022-08-01T14:44:14.902Z,100784.59
2022-08-01T14:47:21.597Z,100784.22
2022-08-01T14:50:25.085Z,100789.84
2022-08-01T14:53:26.641Z,100786.91
2022-08-01T14:56:28.336Z,100787.28
2022-08-01T14:59:30.003Z,100792.25
2022-08-01T15:02:31.612Z,100791.97
2022-08-01T15:05:33.873Z,100785.13
2022-08-01T15:08:36.360Z,100792.91
2022-08-01T15:11:38.433Z,100796.16
2022-08-01T15:14:48.988Z,100793.28
2022-08-01T15:17:52.624Z,100793.13
2022-08-01T15:20:54.563Z,100788.22
2022-08-01T15:23:56.540Z,100795.91
2022-08-01T15:26:58.599Z,100792.84
2022-08-01T15:30:00.263Z,100786.91
2022-08-01T15:33:01.855Z,100794.25
2022-08-01T15:36:03.685Z,100782.81
2022-08-01T15:39:05.331Z,100796.00
2022-08-01T15:42:10.416Z,100794.59
2022-08-01T15:45:37.482Z,100786.75
2022-08-01T15:48:39.830Z,100783.34
2022-08-01T15:51:42.050Z,100787.72
2022-08-01T15:54:43.734Z,100790.75
2022-08-01T15:57:45.779Z,100787.56
2022-08-01T16:00:47.529Z,100784.13
2022-08-01T16:03:49.173Z,100778.84
2022-08-01T16:06:51.102Z,100782.44
2022-08-01T16:09:52.813Z,100788.91
2022-08-01T16:12:54.453Z,100781.56
2022-08-01T16:15:56.075Z,100778.84
2022-08-01T16:18:57.742Z,100787.91
2022-08-01T16:21:59.413Z,100785.34
2022-08-01T16:25:01.178Z,100786.88
2022-08-01T16:28:02.949Z,100784.66
2022-08-01T16:31:15.973Z,100780.41
2022-08-01T16:34:26.590Z,100775.00
2022-08-01T16:37:28.230Z,100780.97
2022-08-01T16:40:29.910Z,100780.66
2022-08-01T16:43:31.581Z,100776.88
2022-08-01T16:46:33.242Z,100786.81
2022-08-01T16:49:34.894Z,100791.59
2022-08-01T16:52:41.672Z,100787.16
2022-08-01T16:55:50.652Z,100784.63
2022-08-01T16:58:52.625Z,100783.22
2022-08-01T17:02:00.027Z,100792.28
2022-08-01T17:05:07.131Z,100792.59
2022-08-01T17:08:11.093Z,100786.31
2022-08-01T17:11:13.276Z,100793.47
2022-08-01T17:14:15.111Z,100790.56
2022-08-01T17:17:17.048Z,100788.88
2022-08-01T17:20:18.867Z,100792.13
2022-08-01T17:23:20.528Z,100790.59
2022-08-01T17:26:22.217Z,100788.56
2022-08-01T17:29:24.016Z,100791.84
2022-08-01T17:32:25.801Z,100797.47
2022-08-01T17:35:28.030Z,100806.31
2022-08-01T17:38:29.631Z,100795.59
2022-08-01T17:41:31.631Z,100797.47
2022-08-01T17:44:33.246Z,100796.13
2022-08-01T17:47:50.306Z,100797.97
2022-08-01T17:50:53.139Z,100797.09
2022-08-01T17:53:57.160Z,100794.88
2022-08-01T17:56:59.576Z,100797.59
2022-08-01T18:00:01.435Z,100800.81
2022-08-01T18:03:08.095Z,100804.38
2022-08-01T18:06:13.497Z,100803.19
2022-08-01T18:09:15.193Z,100797.53
2022-08-01T18:12:17.175Z,100804.84
2022-08-01T18:15:24.536Z,100807.22
2022-08-01T18:18:33.201Z,100816.06
2022-08-01T18:21:39.737Z,100817.72
2022-08-01T18:24:44.183Z,100821.97
2022-08-01T18:28:30.640Z,100820.25
2022-08-01T18:31:08.374Z,100820.72
2022-08-01T18:34:10.121Z,100817.84
2022-08-01T18:37:14.700Z,100819.75
2022-08-01T18:40:22.625Z,100821.25
2022-08-01T18:43:25.046Z,100832.94
2022-08-01T18:46:27.250Z,100835.41
2022-08-01T18:49:29.318Z,100830.47
2022-08-01T18:52:32.503Z,100828.56
2022-08-01T18:55:34.194Z,100824.63
2022-08-01T18:58:36.344Z,100831.00
2022-08-01T19:01:40.905Z,100826.56
2022-08-01T19:04:43.978Z,100825.81
2022-08-01T19:08:04.981Z,100820.00
2022-08-01T19:11:07.369Z,100826.03
2022-08-01T19:14:09.029Z,100831.09
2022-08-01T19:17:10.773Z,100852.47
2022-08-01T19:20:12.372Z,100855.13
2022-08-01T19:23:32.558Z,100854.34
2022-08-01T19:26:36.218Z,100854.13
2022-08-01T19:29:39.259Z,100870.69
2022-08-01T19:32:43.482Z,100872.50
2022-08-01T19:35:46.233Z,100876.84
2022-08-01T19:38:48.829Z,100878.63
2022-08-01T19:41:51.977Z,100889.22
2022-08-01T19:44:54.486Z,100894.25
2022-08-01T19:47:57.807Z,100897.91
2022-08-01T19:51:02.205Z,100902.53
2022-08-01T19:54:06.089Z,100905.69
2022-08-01T19:57:09.240Z,100903.72
2022-08-01T20:00:23.804Z,100908.03
2022-08-01T20:03:32.644Z,100916.06
2022-08-01T20:06:35.365Z,100923.53
2022-08-01T20:09:40.223Z,100929.66
2022-08-01T20:12:42.212Z,100920.84
2022-08-01T20:15:45.110Z,100914.72
2022-08-01T20:18:47.047Z,100920.28
2022-08-01T20:22:03.740Z,100919.31
2022-08-01T20:25:06.263Z,100925.03
2022-08-01T20:28:12.727Z,100929.72
2022-08-01T20:31:16.344Z,100926.31
2022-08-01T20:34:22.424Z,100924.59
2022-08-01T20:38:05.990Z,100928.59
2022-08-01T20:40:49.748Z,100925.16
2022-08-01T20:43:56.289Z,100925.59
2022-08-01T20:46:58.642Z,100928.03
2022-08-01T20:50:27.720Z,100936.44
2022-08-01T20:53:43.715Z,100940.88
2022-08-01T20:56:54.677Z,100951.44
2022-08-01T21:00:04.246Z,100952.16
2022-08-01T21:03:16.056Z,100943.00
2022-08-01T21:06:22.740Z,100940.28
2022-08-01T21:09:26.756Z,100946.44
2022-08-01T21:12:49.606Z,100936.72
2022-08-01T21:16:07.498Z,100943.28
2022-08-01T21:19:26.733Z,100950.00
2022-08-01T21:22:53.050Z,100957.00
2022-08-01T21:25:58.016Z,100969.97
2022-08-01T21:29:02.433Z,100975.97
2022-08-01T21:32:12.602Z,100972.84
2022-08-01T21:35:16.308Z,100970.81
2022-08-01T21:38:20.440Z,100978.81
2022-08-01T21:42:03.430Z,100971.22
2022-08-01T21:44:47.976Z,100969.81
2022-08-01T21:47:50.580Z,100971.88
2022-08-01T21:50:59.370Z,100971.84
2022-08-01T21:54:24.566Z,100970.53
2022-08-01T21:57:55.620Z,100971.69
2022-08-01T22:01:13.586Z,100967.69
2022-08-01T22:04:18.581Z,100960.25
2022-08-01T22:07:22.778Z,100956.53
2022-08-01T22:10:26.185Z,100950.47
2022-08-01T22:13:27.854Z,100964.56
2022-08-01T22:16:31.806Z,100949.72
2022-08-01T22:19:45.039Z,100956.38
2022-08-01T22:22:52.295Z,100961.50
2022-08-01T22:25:55.473Z,100960.31
2022-08-01T22:28:58.627Z,100957.53
2022-08-01T22:32:01.600Z,100953.66
2022-08-01T22:35:06.445Z,100957.63
2022-08-01T22:38:09.885Z,100953.00
2022-08-01T22:41:16.174Z,100952.50
2022-08-01T22:44:27.086Z,100957.34
2022-08-01T22:47:50.529Z,100955.97
2022-08-01T22:50:59.913Z,100964.06
2022-08-01T22:54:04.585Z,100970.81
2022-08-01T22:57:14.348Z,100967.03
2022-08-01T23:00:16.140Z,100970.28
2022-08-01T23:03:24.392Z,100972.34
2022-08-01T23:06:35.905Z,100966.47
2022-08-01T23:09:52.803Z,100965.41
2022-08-01T23:12:56.672Z,100975.75
2022-08-01T23:16:00.666Z,100977.13
2022-08-01T23:19:02.449Z,100973.94
2022-08-01T23:22:04.840Z,100979.81
2022-08-01T23:25:10.827Z,100988.44
2022-08-01T23:28:13.312Z,100979.97
2022-08-01T23:31:16.595Z,100984.03
2022-08-01T23:34:20.098Z,100974.94
2022-08-01T23:37:22.069Z,100981.22
2022-08-01T23:40:25.093Z,100979.38
2022-08-01T23:43:26.990Z,100978.66
2022-08-01T23:46:28.586Z,100975.94
2022-08-01T23:49:30.791Z,100978.53
2022-08-01T23:52:34.169Z,100969.69
2022-08-01T23:55:38.063Z,100960.59
2022-08-01T23:58:39.744Z,100958.75
